ANA562 RJOK-RJTT
Flight info
| Callsign | ANA562 |
|---|---|
| Flight time | N/A |
| Altitude | 35000 |
| Route | MUROT MIYAT MERID KEC Y43 MENUR Y21 AKSEL |
| Aircraft | A321/M-SDE3FGHIRWY/LB1 |
Departure
| Time | 2026-04-22 17:08 |
|---|---|
| Airport | Kochi Ryoma Airport (RJOK) |
Arrival
| Time | N/A |
|---|---|
| Airport | Tokyo Haneda International Airport (RJTT) |
| Time | Latitude | Longitude | Altitude | Speed | Heading |
|---|---|---|---|---|---|
| 2026-04-22 16:52 | 33.54672 | 133.67408 | 38 ft | 0 kts | 40° |
| 2026-04-22 16:59 | 33.54662 | 133.67397 | 37 ft | 3 kts | 40° |
| 2026-04-22 17:00 | 33.54648 | 133.67383 | 35 ft | 3 kts | 40° |
| 2026-04-22 17:00 | 33.54620 | 133.67353 | 35 ft | 3 kts | 40° |
| 2026-04-22 17:00 | 33.54606 | 133.67339 | 35 ft | 3 kts | 40° |
| 2026-04-22 17:01 | 33.54592 | 133.67324 | 35 ft | 3 kts | 40° |
| 2026-04-22 17:01 | 33.54578 | 133.67310 | 35 ft | 3 kts | 40° |
| 2026-04-22 17:01 | 33.54565 | 133.67297 | 36 ft | 1 kts | 40° |
| 2026-04-22 17:01 | 33.54564 | 133.67296 | 36 ft | 0 kts | 40° |
| 2026-04-22 17:03 | 33.54564 | 133.67302 | 35 ft | 1 kts | 84° |
| 2026-04-22 17:03 | 33.54537 | 133.67344 | 37 ft | 11 kts | 126° |
| 2026-04-22 17:04 | 33.54492 | 133.67407 | 37 ft | 9 kts | 136° |
| 2026-04-22 17:04 | 33.54433 | 133.67483 | 37 ft | 18 kts | 131° |
| 2026-04-22 17:04 | 33.54346 | 133.67603 | 37 ft | 19 kts | 130° |
| 2026-04-22 17:04 | 33.54264 | 133.67718 | 37 ft | 18 kts | 130° |
| 2026-04-22 17:05 | 33.54186 | 133.67827 | 36 ft | 17 kts | 131° |
| 2026-04-22 17:05 | 33.54112 | 133.67928 | 35 ft | 15 kts | 131° |
| 2026-04-22 17:05 | 33.54048 | 133.68017 | 37 ft | 10 kts | 131° |
| 2026-04-22 17:05 | 33.53997 | 133.68057 | 37 ft | 8 kts | 173° |
| 2026-04-22 17:06 | 33.53946 | 133.68034 | 36 ft | 8 kts | 216° |
| 2026-04-22 17:06 | 33.53906 | 133.67989 | 35 ft | 8 kts | 230° |
| 2026-04-22 17:06 | 33.53890 | 133.67950 | 35 ft | 3 kts | 262° |
| 2026-04-22 17:06 | 33.53894 | 133.67932 | 36 ft | 1 kts | 295° |
| 2026-04-22 17:07 | 33.53902 | 133.67916 | 36 ft | 3 kts | 308° |
| 2026-04-22 17:07 | 33.53904 | 133.67914 | 36 ft | 0 kts | 308° |
| 2026-04-22 17:07 | 33.53906 | 133.67910 | 34 ft | 7 kts | 308° |
| 2026-04-22 17:07 | 33.54113 | 133.67621 | 37 ft | 82 kts | 311° |
| 2026-04-22 17:08 | 33.54619 | 133.66915 | 35 ft | 139 kts | 310° |
| 2026-04-22 17:08 | 33.55330 | 133.65938 | 323 ft | 156 kts | 312° |
| 2026-04-22 17:08 | 33.56016 | 133.65005 | 1089 ft | 145 kts | 314° |
| 2026-04-22 17:08 | 33.56941 | 133.64552 | 1499 ft | 156 kts | 10° |
| 2026-04-22 17:09 | 33.57934 | 133.65161 | 1803 ft | 171 kts | 46° |
| 2026-04-22 17:09 | 33.58496 | 133.66489 | 1972 ft | 190 kts | 74° |
| 2026-04-22 17:09 | 33.58756 | 133.67528 | 2051 ft | 204 kts | 73° |
| 2026-04-22 17:09 | 33.59368 | 133.69855 | 2232 ft | 234 kts | 72° |
| 2026-04-22 17:10 | 33.59894 | 133.71805 | 2549 ft | 253 kts | 74° |
| 2026-04-22 17:10 | 33.60012 | 133.73882 | 3194 ft | 258 kts | 105° |
| 2026-04-22 17:10 | 33.59148 | 133.75773 | 3903 ft | 263 kts | 127° |
| 2026-04-22 17:10 | 33.57979 | 133.77469 | 4668 ft | 266 kts | 129° |